Time;durP1;ratioP1;P1;durP2;ratioP2;P2;SDS_P1;SDS_P2;PMS_P1;PMS_P2;Temp;Humidity;BMP_temperature;BMP_pressure;BME280_temperature;BME280_humidity;BME280_pressure;Samples;Min_cycle;Max_cycle;Signal;HPM_P1;HPM_P2
2021/07/23 00:01:48;;;;;;;;;;;25.70;99.90;;;;;;1894751;74;20270;-88
2021/07/23 00:04:17;;;;;;;;;;;25.70;99.90;;;;;;1922055;74;20246;-89
2021/07/23 00:06:49;;;;;;;;;;;25.70;99.90;;;;;;1910501;74;20216;-88
2021/07/23 00:09:19;;;;;;;;;;;25.70;99.90;;;;;;1898391;74;20191;-89
2021/07/23 00:11:48;;;;;;;;;;;25.80;99.90;;;;;;1909911;74;20182;-90
2021/07/23 00:14:25;;;;;;;;;;;25.80;99.90;;;;;;1891925;75;20206;-89
2021/07/23 00:16:55;;;;;;;;;;;25.80;99.90;;;;;;1906745;74;20124;-89
2021/07/23 00:19:27;;;;;;;;;;;25.80;99.90;;;;;;1910441;74;20206;-89
2021/07/23 00:22:00;;;;;;;;;;;25.80;99.90;;;;;;1898868;74;20262;-88
2021/07/23 00:24:31;;;;;;;;;;;25.80;99.90;;;;;;1916969;74;20411;-88
2021/07/23 00:27:04;;;;;;;;;;;25.90;99.90;;;;;;1904400;74;20208;-88
2021/07/23 00:29:34;;;;;;;;;;;25.90;99.90;;;;;;1910080;73;20183;-89
2021/07/23 00:32:13;;;;;;;;;;;25.90;99.90;;;;;;1902868;74;20130;-90
2021/07/23 00:37:41;;;;;;;;;;;26.00;99.90;;;;;;1957028;72;20242;-89
2021/07/23 00:40:13;;;;;;;;;;;26.00;99.90;;;;;;1960935;72;20202;-90
2021/07/23 00:42:45;;;;;;;;;;;26.10;99.90;;;;;;1957581;72;20133;-88
2021/07/23 00:45:15;;;;;;;;;;;26.10;99.90;;;;;;1954916;73;20698;-89
2021/07/23 00:47:46;;;;;;;;;;;26.10;99.90;;;;;;1960495;72;20192;-88
2021/07/23 00:50:16;;;;;;;;;;;26.10;99.90;;;;;;1959841;72;20127;-89
2021/07/23 00:52:49;;;;;;;;;;;26.20;99.90;;;;;;1956769;72;20254;-89
2021/07/23 00:55:23;;;;;;;;;;;26.20;99.90;;;;;;1955190;72;20259;-89
2021/07/23 00:57:54;;;;;;;;;;;26.20;99.90;;;;;;1884244;75;20195;-89
2021/07/23 01:00:25;;;;;;;;;;;26.30;99.90;;;;;;1914967;73;20228;-89
2021/07/23 01:02:55;;;;;;;;;;;26.30;99.90;;;;;;1904878;74;20234;-88
2021/07/23 01:05:30;;;;;;;;;;;26.30;99.90;;;;;;1904992;74;20230;-90
2021/07/23 01:07:59;;;;;;;;;;;26.30;99.90;;;;;;1877468;75;20518;-87
2021/07/23 01:10:31;;;;;;;;;;;26.40;99.90;;;;;;1873929;75;20238;-88
2021/07/23 01:13:04;;;;;;;;;;;26.40;99.90;;;;;;1881456;76;20273;-88
2021/07/23 01:15:32;;;;;;;;;;;26.50;99.90;;;;;;1885934;75;20526;-89
2021/07/23 01:18:03;;;;;;;;;;;26.50;99.90;;;;;;1904883;75;20198;-88
2021/07/23 01:20:33;;;;;;;;;;;26.50;99.90;;;;;;1901538;74;20178;-87
2021/07/23 01:23:03;;;;;;;;;;;26.60;99.90;;;;;;1904583;74;20201;-87
2021/07/23 01:25:34;;;;;;;;;;;26.60;99.90;;;;;;1873234;75;20297;-89
2021/07/23 01:28:06;;;;;;;;;;;26.60;99.90;;;;;;1921732;74;20274;-89
2021/07/23 01:30:37;;;;;;;;;;;26.60;99.90;;;;;;1970145;72;20216;-89
2021/07/23 01:33:06;;;;;;;;;;;26.60;99.90;;;;;;1958663;72;20237;-88
2021/07/23 01:35:36;;;;;;;;;;;26.60;99.90;;;;;;1960773;72;20252;-89
2021/07/23 01:38:07;;;;;;;;;;;26.60;99.90;;;;;;1956554;72;20201;-89
2021/07/23 01:40:40;;;;;;;;;;;26.50;99.90;;;;;;1907291;74;20174;-87
2021/07/23 01:43:11;;;;;;;;;;;26.50;99.90;;;;;;1905997;74;20143;-89
2021/07/23 01:45:41;;;;;;;;;;;26.50;99.90;;;;;;1926058;74;20140;-88
2021/07/23 01:48:14;;;;;;;;;;;26.50;99.90;;;;;;1921616;74;20194;-89
2021/07/23 01:50:45;;;;;;;;;;;26.50;99.90;;;;;;1918507;74;20918;-88
2021/07/23 01:53:16;;;;;;;;;;;26.50;99.90;;;;;;1905153;74;20207;-89
2021/07/23 01:55:45;;;;;;;;;;;26.50;99.90;;;;;;1872105;76;20409;-86
2021/07/23 01:58:15;;;;;;;;;;;26.50;99.90;;;;;;1882076;75;20412;-88
2021/07/23 02:00:44;;;;;;;;;;;26.60;99.90;;;;;;1878980;76;20506;-89
2021/07/23 02:03:14;;;;;;;;;;;26.60;99.90;;;;;;1973183;72;20505;-88
2021/07/23 02:05:44;;;;;;;;;;;26.60;99.80;;;;;;1965011;72;20173;-88
2021/07/23 02:08:14;;;;;;;;;;;26.70;99.40;;;;;;1967121;72;20218;-86
2021/07/23 02:10:43;;;;;;;;;;;26.60;99.20;;;;;;1957255;72;20176;-86
2021/07/23 02:13:16;;;;;;;;;;;26.70;99.40;;;;;;1957685;72;20198;-88
2021/07/23 02:15:49;;;;;;;;;;;26.70;99.60;;;;;;1952733;72;20255;-87
2021/07/23 02:18:18;;;;;;;;;;;26.70;99.40;;;;;;1936186;73;20160;-87
2021/07/23 02:20:47;;;;;;;;;;;26.70;99.30;;;;;;1952423;72;20191;-86
2021/07/23 02:23:25;;;;;;;;;;;26.60;99.20;;;;;;1949476;72;20257;-87
2021/07/23 02:26:00;;;;;;;;;;;26.70;99.50;;;;;;1876044;75;20168;-85
2021/07/23 02:28:30;;;;;;;;;;;26.70;99.00;;;;;;1874468;75;20408;-86
2021/07/23 02:30:59;;;;;;;;;;;26.70;99.20;;;;;;1877567;75;20513;-85
2021/07/23 02:33:29;;;;;;;;;;;26.70;99.40;;;;;;1874098;75;20211;-86
2021/07/23 02:35:58;;;;;;;;;;;26.80;99.20;;;;;;1871645;75;20179;-86
2021/07/23 02:38:28;;;;;;;;;;;26.90;99.10;;;;;;1901216;74;20222;-84
2021/07/23 02:40:58;;;;;;;;;;;26.90;99.30;;;;;;1911160;74;20259;-85
2021/07/23 02:43:28;;;;;;;;;;;27.00;98.70;;;;;;1902673;74;20167;-85
2021/07/23 02:45:58;;;;;;;;;;;27.10;98.90;;;;;;1872410;75;20250;-85
2021/07/23 02:48:28;;;;;;;;;;;27.10;99.10;;;;;;1912268;74;20247;-86
2021/07/23 02:51:00;;;;;;;;;;;27.20;99.10;;;;;;1906064;74;20171;-85
2021/07/23 02:53:28;;;;;;;;;;;27.30;98.70;;;;;;1902755;74;20465;-87
2021/07/23 02:55:57;;;;;;;;;;;27.30;98.30;;;;;;1892493;74;20205;-86
2021/07/23 02:58:27;;;;;;;;;;;27.30;98.10;;;;;;1912359;74;20149;-85
2021/07/23 03:00:57;;;;;;;;;;;27.40;98.10;;;;;;1886384;74;20168;-85
2021/07/23 03:03:27;;;;;;;;;;;27.40;98.60;;;;;;1886873;75;20188;-84
2021/07/23 03:05:59;;;;;;;;;;;27.50;98.00;;;;;;1874739;74;20170;-84
2021/07/23 03:08:29;;;;;;;;;;;27.60;97.70;;;;;;1885275;75;20471;-83
2021/07/23 03:10:58;;;;;;;;;;;27.70;97.60;;;;;;1885638;75;20135;-84
2021/07/23 03:13:29;;;;;;;;;;;27.70;97.50;;;;;;1901998;73;20207;-84
2021/07/23 03:15:59;;;;;;;;;;;27.80;96.90;;;;;;1906105;74;20792;-84
2021/07/23 03:18:29;;;;;;;;;;;27.80;97.00;;;;;;1894896;75;20191;-84
2021/07/23 03:21:00;;;;;;;;;;;27.80;97.40;;;;;;1887719;75;20183;-84
2021/07/23 03:23:32;;;;;;;;;;;27.80;96.80;;;;;;1939346;73;20148;-84
2021/07/23 03:26:08;;;;;;;;;;;27.90;96.80;;;;;;1933962;73;20133;-84
2021/07/23 03:28:38;;;;;;;;;;;27.90;96.80;;;;;;1934535;73;20133;-84
2021/07/23 03:31:09;;;;;;;;;;;27.90;97.40;;;;;;1938418;73;20188;-83
2021/07/23 03:33:39;;;;;;;;;;;27.90;97.00;;;;;;1939848;74;20278;-84
2021/07/23 03:36:09;;;;;;;;;;;27.90;97.10;;;;;;1933284;73;20271;-84
2021/07/23 03:38:39;;;;;;;;;;;27.90;97.00;;;;;;1908356;74;20155;-85
2021/07/23 03:41:11;;;;;;;;;;;27.80;97.30;;;;;;1858313;76;20138;-85
2021/07/23 03:43:40;;;;;;;;;;;27.80;97.00;;;;;;1880844;76;20188;-84
2021/07/23 03:46:10;;;;;;;;;;;27.80;97.00;;;;;;1860256;76;20221;-92
2021/07/23 03:48:40;;;;;;;;;;;27.80;97.20;;;;;;1897163;74;20248;-89
2021/07/23 03:51:09;;;;;;;;;;;27.70;97.30;;;;;;1876367;74;20181;-86
2021/07/23 03:53:39;;;;;;;;;;;27.80;97.30;;;;;;1872326;75;20188;-87
2021/07/23 03:56:10;;;;;;;;;;;27.80;97.30;;;;;;1865632;76;20201;-86
2021/07/23 03:58:40;;;;;;;;;;;27.80;97.10;;;;;;1883503;76;20202;-86
2021/07/23 04:01:11;;;;;;;;;;;27.90;96.80;;;;;;1876969;75;20200;-87
2021/07/23 04:03:54;;;;;;;;;;;;;;;;;;;;;
2021/07/23 04:06:21;;;;;;;;;;;27.90;96.60;;;;;;1834811;76;20126;-89
2021/07/23 04:08:54;;;;;;;;;;;27.90;96.10;;;;;;1851263;77;20151;-88
2021/07/23 04:11:38;;;;;;;;;;;27.90;95.80;;;;;;1857139;77;20247;-94
2021/07/23 04:14:02;;;;;;;;;;;27.90;96.00;;;;;;1866537;76;20239;-86
2021/07/23 04:16:47;;;;;;;;;;;27.80;95.80;;;;;;1888669;76;20227;-87
2021/07/23 04:19:32;;;;;;;;;;;27.80;95.90;;;;;;1853520;76;20153;-88
2021/07/23 04:22:02;;;;;;;;;;;27.80;96.10;;;;;;1889714;75;20191;-87
2021/07/23 04:24:32;;;;;;;;;;;27.80;96.10;;;;;;1875384;75;20120;-88
2021/07/23 04:27:02;;;;;;;;;;;27.80;96.50;;;;;;1872744;75;20201;-93
2021/07/23 04:29:32;;;;;;;;;;;27.80;96.40;;;;;;1904947;74;20202;-92
2021/07/23 04:32:01;;;;;;;;;;;27.80;96.20;;;;;;1901599;75;20132;-90
2021/07/23 04:34:31;;;;;;;;;;;27.80;95.90;;;;;;1902493;75;20183;-91
2021/07/23 04:37:02;;;;;;;;;;;27.80;96.00;;;;;;1902571;74;20155;-91
2021/07/23 04:39:34;;;;;;;;;;;27.80;96.00;;;;;;1902363;74;20123;-92
2021/07/23 04:42:05;;;;;;;;;;;27.80;96.00;;;;;;1905512;74;20130;-92
2021/07/23 04:44:35;;;;;;;;;;;27.80;96.10;;;;;;1901980;74;20224;-94
2021/07/23 04:47:04;;;;;;;;;;;27.80;96.50;;;;;;1907367;75;20132;-91
2021/07/23 04:49:34;;;;;;;;;;;27.90;96.20;;;;;;1889105;75;20207;-92
2021/07/23 04:52:05;;;;;;;;;;;27.90;96.00;;;;;;1882399;76;20222;-87
2021/07/23 04:54:35;;;;;;;;;;;27.90;96.00;;;;;;1892491;75;20213;-92
2021/07/23 04:57:05;;;;;;;;;;;28.00;95.60;;;;;;1903683;75;20383;-92
2021/07/23 04:59:35;;;;;;;;;;;28.00;95.80;;;;;;1904576;74;20190;-91
2021/07/23 05:02:05;;;;;;;;;;;28.10;96.00;;;;;;1903800;74;20427;-92
2021/07/23 05:04:37;;;;;;;;;;;28.10;96.00;;;;;;1901098;74;20494;-91
2021/07/23 05:07:15;;;;;;;;;;;28.20;96.00;;;;;;1900500;75;20237;-89
2021/07/23 05:09:44;;;;;;;;;;;28.30;95.90;;;;;;1910362;74;20167;-90
2021/07/23 05:12:14;;;;;;;;;;;28.40;95.90;;;;;;1901252;75;20855;-89
2021/07/23 05:14:47;;;;;;;;;;;28.40;95.40;;;;;;1888331;75;20155;-90
2021/07/23 05:17:19;;;;;;;;;;;28.40;95.00;;;;;;1893879;76;20203;-91
2021/07/23 05:19:50;;;;;;;;;;;28.40;95.10;;;;;;1914252;75;20153;-78
2021/07/23 05:22:20;;;;;;;;;;;28.40;95.10;;;;;;1948424;73;20214;-79
2021/07/23 05:24:50;;;;;;;;;;;28.30;94.90;;;;;;1965292;72;20342;-78
2021/07/23 05:27:30;;;;;;;;;;;28.20;95.00;;;;;;1960333;73;20175;-83
2021/07/23 05:30:00;;;;;;;;;;;28.20;95.50;;;;;;1958829;72;20559;-80
2021/07/23 05:32:30;;;;;;;;;;;28.20;95.90;;;;;;1946909;73;20497;-80
2021/07/23 05:34:59;;;;;;;;;;;28.20;95.10;;;;;;1959259;72;20244;-80
2021/07/23 05:37:30;;;;;;;;;;;28.20;95.50;;;;;;1958698;73;20321;-82
2021/07/23 05:40:00;;;;;;;;;;;28.20;95.40;;;;;;1955605;72;20223;-80
2021/07/23 05:42:29;;;;;;;;;;;28.20;95.50;;;;;;1960613;73;20207;-80
2021/07/23 05:44:59;;;;;;;;;;;28.10;95.50;;;;;;1920781;73;20165;-80
2021/07/23 05:47:29;;;;;;;;;;;28.10;95.90;;;;;;1876960;75;20215;-81
2021/07/23 05:50:05;;;;;;;;;;;28.10;95.60;;;;;;1872640;76;20533;-80
2021/07/23 05:52:34;;;;;;;;;;;28.10;95.80;;;;;;1893111;75;20182;-80
2021/07/23 05:55:04;;;;;;;;;;;28.10;95.20;;;;;;1961000;73;20194;-79
2021/07/23 05:57:34;;;;;;;;;;;28.10;95.70;;;;;;1960467;72;20167;-80
2021/07/23 06:00:06;;;;;;;;;;;28.20;95.60;;;;;;1959691;73;20161;-77
2021/07/23 06:02:35;;;;;;;;;;;28.10;95.60;;;;;;1961343;72;20215;-78
2021/07/23 06:05:06;;;;;;;;;;;28.30;95.40;;;;;;1962220;73;20179;-81
2021/07/23 06:07:37;;;;;;;;;;;28.30;95.10;;;;;;1912148;73;20197;-81
2021/07/23 06:10:06;;;;;;;;;;;28.40;94.80;;;;;;1865430;75;20187;-79
2021/07/23 06:12:36;;;;;;;;;;;28.30;94.80;;;;;;1897966;74;20188;-79
2021/07/23 06:15:06;;;;;;;;;;;28.40;95.00;;;;;;1904533;73;20199;-79
2021/07/23 06:17:36;;;;;;;;;;;28.40;94.70;;;;;;1945461;72;20150;-79
2021/07/23 06:20:06;;;;;;;;;;;28.40;95.10;;;;;;1959222;72;20171;-80
2021/07/23 06:22:35;;;;;;;;;;;28.40;95.50;;;;;;1909860;73;20168;-78
2021/07/23 06:25:05;;;;;;;;;;;28.40;95.20;;;;;;1910455;73;20184;-78
2021/07/23 06:27:35;;;;;;;;;;;28.40;95.00;;;;;;1904914;73;20560;-78
2021/07/23 06:30:05;;;;;;;;;;;28.40;95.20;;;;;;1865485;76;20424;-78
2021/07/23 06:32:35;;;;;;;;;;;28.30;94.80;;;;;;1900064;73;20159;-78
2021/07/23 06:35:05;;;;;;;;;;;28.30;95.50;;;;;;1904257;74;20143;-78
2021/07/23 06:37:35;;;;;;;;;;;28.40;94.80;;;;;;1883102;75;20443;-79
2021/07/23 06:40:04;;;;;;;;;;;28.30;95.00;;;;;;1899862;73;20179;-78
2021/07/23 06:42:36;;;;;;;;;;;28.30;95.30;;;;;;1871875;76;20159;-78
2021/07/23 06:45:05;;;;;;;;;;;28.30;95.00;;;;;;1862698;76;20195;-79
2021/07/23 06:47:36;;;;;;;;;;;28.40;95.30;;;;;;1882898;75;20185;-79
2021/07/23 06:50:06;;;;;;;;;;;28.40;94.90;;;;;;1873545;75;20207;-77
2021/07/23 06:52:36;;;;;;;;;;;28.50;94.70;;;;;;1902510;73;20152;-79
2021/07/23 06:55:06;;;;;;;;;;;28.60;95.00;;;;;;1904230;73;20259;-80
2021/07/23 06:57:35;;;;;;;;;;;28.60;95.10;;;;;;1870392;75;20216;-80
2021/07/23 07:00:05;;;;;;;;;;;28.60;94.90;;;;;;1870446;76;20208;-79
2021/07/23 07:02:35;;;;;;;;;;;28.70;95.30;;;;;;1866538;76;20148;-80
2021/07/23 07:05:04;;;;;;;;;;;28.70;94.80;;;;;;1903435;74;20236;-78
2021/07/23 07:07:34;;;;;;;;;;;28.70;94.70;;;;;;1869079;75;20243;-77
2021/07/23 07:10:04;;;;;;;;;;;28.70;94.70;;;;;;1957999;72;20192;-78
2021/07/23 07:12:33;;;;;;;;;;;28.60;95.30;;;;;;1960125;72;20240;-79
2021/07/23 07:15:03;;;;;;;;;;;28.60;95.30;;;;;;1971589;72;20207;-78
2021/07/23 07:17:34;;;;;;;;;;;28.50;95.90;;;;;;1940336;72;20183;-78
2021/07/23 07:20:04;;;;;;;;;;;28.50;95.50;;;;;;1972746;72;20186;-78
2021/07/23 07:22:36;;;;;;;;;;;28.40;95.50;;;;;;1905502;74;20584;-77
2021/07/23 07:25:07;;;;;;;;;;;28.30;95.70;;;;;;1879516;75;20203;-77
2021/07/23 07:27:37;;;;;;;;;;;28.30;96.20;;;;;;1878611;75;20156;-78
2021/07/23 07:30:07;;;;;;;;;;;28.20;96.30;;;;;;1882444;76;20231;-78
2021/07/23 07:32:36;;;;;;;;;;;28.20;96.30;;;;;;1885374;75;20524;-79
2021/07/23 07:35:06;;;;;;;;;;;28.20;96.30;;;;;;1905488;74;20126;-78
2021/07/23 07:37:36;;;;;;;;;;;28.20;96.50;;;;;;1878462;75;20617;-78
2021/07/23 07:40:06;;;;;;;;;;;28.20;96.70;;;;;;1877381;75;20168;-78
2021/07/23 07:42:36;;;;;;;;;;;28.20;96.80;;;;;;1908137;74;20165;-79
2021/07/23 07:45:06;;;;;;;;;;;28.20;96.80;;;;;;1874331;75;20171;-78
2021/07/23 07:47:36;;;;;;;;;;;28.20;96.30;;;;;;1895861;74;20216;-79
2021/07/23 07:50:06;;;;;;;;;;;28.20;96.10;;;;;;1873664;75;20604;-78
2021/07/23 07:52:36;;;;;;;;;;;28.10;96.20;;;;;;1884604;75;20171;-79
2021/07/23 07:55:06;;;;;;;;;;;28.00;96.30;;;;;;1885384;74;20520;-78
2021/07/23 07:57:35;;;;;;;;;;;27.90;96.60;;;;;;1893810;74;20202;-78
2021/07/23 08:00:06;;;;;;;;;;;27.90;97.00;;;;;;1881501;74;20214;-79
2021/07/23 08:02:35;;;;;;;;;;;27.80;97.00;;;;;;1904122;74;20225;-79
2021/07/23 08:05:09;;;;;;;;;;;27.70;97.30;;;;;;1884401;75;20207;-78
2021/07/23 08:07:39;;;;;;;;;;;27.70;97.50;;;;;;1886838;74;20229;-79
2021/07/23 08:10:13;;;;;;;;;;;27.70;98.10;;;;;;1883076;74;20206;-78
2021/07/23 08:12:41;;;;;;;;;;;27.60;97.80;;;;;;1902793;74;20251;-79
2021/07/23 08:15:11;;;;;;;;;;;27.60;98.00;;;;;;1952633;72;20173;-80
2021/07/23 08:17:40;;;;;;;;;;;27.60;97.90;;;;;;1951547;72;20155;-79
2021/07/23 08:20:11;;;;;;;;;;;27.60;97.90;;;;;;1950698;72;20144;-81
2021/07/23 08:22:40;;;;;;;;;;;27.60;97.90;;;;;;1964392;72;20160;-78
2021/07/23 08:25:10;;;;;;;;;;;27.70;98.40;;;;;;1958810;72;20194;-78
2021/07/23 08:27:45;;;;;;;;;;;27.60;98.20;;;;;;1962692;72;20183;-78
2021/07/23 08:30:19;;;;;;;;;;;27.70;98.20;;;;;;1953451;72;20178;-78
2021/07/23 08:32:49;;;;;;;;;;;27.70;98.00;;;;;;1959986;72;20233;-79
2021/07/23 08:35:19;;;;;;;;;;;27.70;98.00;;;;;;1954716;72;20613;-78
2021/07/23 08:37:49;;;;;;;;;;;27.70;97.80;;;;;;1960345;72;20200;-78
2021/07/23 08:40:18;;;;;;;;;;;27.70;97.80;;;;;;1962529;72;20450;-79
2021/07/23 08:42:48;;;;;;;;;;;27.80;97.80;;;;;;1952693;72;20459;-78
2021/07/23 08:45:18;;;;;;;;;;;27.80;97.80;;;;;;1959354;72;20660;-78
2021/07/23 08:47:48;;;;;;;;;;;27.80;97.80;;;;;;1958605;72;20226;-78
2021/07/23 08:50:18;;;;;;;;;;;27.80;97.80;;;;;;1926879;74;20471;-80
2021/07/23 08:52:48;;;;;;;;;;;27.80;97.70;;;;;;1899761;74;20143;-79
2021/07/23 08:55:19;;;;;;;;;;;27.80;97.80;;;;;;1893827;75;20136;-79
2021/07/23 08:57:49;;;;;;;;;;;27.80;97.90;;;;;;1919796;74;20472;-78
2021/07/23 09:00:20;;;;;;;;;;;27.80;98.30;;;;;;1923845;74;20187;-78
2021/07/23 09:02:51;;;;;;;;;;;27.80;98.00;;;;;;1935273;74;20137;-79
2021/07/23 09:05:22;;;;;;;;;;;27.80;98.00;;;;;;1961366;72;20616;-79
2021/07/23 09:07:51;;;;;;;;;;;27.80;98.10;;;;;;1953657;72;20258;-78
2021/07/23 09:10:22;;;;;;;;;;;27.70;98.20;;;;;;1954205;72;20275;-79
2021/07/23 09:12:55;;;;;;;;;;;27.80;98.20;;;;;;1957031;72;20188;-80
2021/07/23 09:15:27;;;;;;;;;;;27.70;98.20;;;;;;1952343;72;20546;-80
2021/07/23 09:18:05;;;;;;;;;;;27.80;98.20;;;;;;1873742;73;20222;-80
2021/07/23 09:20:45;;;;;;;;;;;27.80;98.00;;;;;;1865546;75;20232;-78
2021/07/23 09:23:20;;;;;;;;;;;27.80;98.30;;;;;;1863484;75;20262;-78
2021/07/23 09:25:51;;;;;;;;;;;27.80;98.30;;;;;;1869223;75;20158;-80
2021/07/23 09:28:21;;;;;;;;;;;27.70;98.30;;;;;;1857816;75;20140;-80
2021/07/23 09:30:52;;;;;;;;;;;27.70;98.40;;;;;;1816583;77;20651;-78
2021/07/23 09:33:23;;;;;;;;;;;27.70;98.40;;;;;;1817548;77;20585;-78
2021/07/23 09:35:54;;;;;;;;;;;27.70;98.60;;;;;;1821427;77;20223;-78
2021/07/23 09:38:25;;;;;;;;;;;27.70;98.60;;;;;;1786823;79;20243;-78
2021/07/23 09:40:56;;;;;;;;;;;27.70;98.80;;;;;;1823746;77;20148;-80
2021/07/23 09:43:27;;;;;;;;;;;27.70;98.90;;;;;;1779869;78;20218;-79
2021/07/23 09:45:57;;;;;;;;;;;27.70;98.90;;;;;;1806634;77;20249;-78
2021/07/23 09:48:28;;;;;;;;;;;27.70;99.00;;;;;;1867879;76;20817;-80
2021/07/23 09:50:59;;;;;;;;;;;27.80;99.20;;;;;;1867242;75;20171;-80
2021/07/23 09:53:28;;;;;;;;;;;27.80;99.40;;;;;;1818451;77;20242;-79
2021/07/23 09:55:59;;;;;;;;;;;27.80;99.30;;;;;;1808961;77;20662;-78
2021/07/23 09:58:28;;;;;;;;;;;27.70;99.20;;;;;;1839865;77;20133;-79
2021/07/23 10:01:01;;;;;;;;;;;27.80;99.40;;;;;;1829928;76;20186;-79
2021/07/23 10:03:30;;;;;;;;;;;27.70;99.30;;;;;;1827296;77;20182;-79
2021/07/23 10:06:01;;;;;;;;;;;27.80;99.40;;;;;;1827593;77;20600;-79
2021/07/23 10:08:32;;;;;;;;;;;27.80;99.40;;;;;;1845447;76;20192;-78
2021/07/23 10:11:04;;;;;;;;;;;27.70;99.20;;;;;;1829027;76;20225;-79
2021/07/23 10:13:34;;;;;;;;;;;27.70;99.10;;;;;;1816214;78;20217;-80
2021/07/23 10:16:08;;;;;;;;;;;27.80;99.00;;;;;;1845037;76;20176;-79
2021/07/23 10:18:43;;;;;;;;;;;27.70;99.00;;;;;;1889647;74;20205;-80
2021/07/23 10:21:18;;;;;;;;;;;27.70;98.80;;;;;;1889086;74;20266;-80
2021/07/23 10:23:48;;;;;;;;;;;27.70;98.90;;;;;;1915025;73;20185;-79
2021/07/23 10:26:23;;;;;;;;;;;27.70;99.00;;;;;;1938623;73;20155;-79
2021/07/23 10:28:53;;;;;;;;;;;27.60;99.00;;;;;;1940985;73;20143;-80
2021/07/23 10:31:27;;;;;;;;;;;27.60;99.40;;;;;;1946958;72;20239;-79
2021/07/23 10:33:55;;;;;;;;;;;27.50;99.50;;;;;;1942086;72;20116;-79
2021/07/23 10:36:25;;;;;;;;;;;27.50;99.20;;;;;;1853328;76;20637;-79
2021/07/23 10:38:56;;;;;;;;;;;27.40;99.40;;;;;;1860549;75;20193;-79
2021/07/23 10:41:26;;;;;;;;;;;27.30;99.30;;;;;;1878667;75;20199;-79
2021/07/23 10:43:56;;;;;;;;;;;27.30;99.90;;;;;;1900419;74;20169;-79
2021/07/23 10:46:27;;;;;;;;;;;27.20;99.60;;;;;;1878172;75;20161;-79
2021/07/23 10:48:57;;;;;;;;;;;27.10;99.70;;;;;;1886080;76;20211;-80
2021/07/23 10:51:28;;;;;;;;;;;27.10;99.70;;;;;;1877528;75;20254;-79
2021/07/23 10:53:59;;;;;;;;;;;27.10;99.90;;;;;;1876432;76;20444;-80
2021/07/23 10:56:30;;;;;;;;;;;27.10;99.80;;;;;;1903648;74;20217;-79
2021/07/23 10:58:59;;;;;;;;;;;27.10;99.90;;;;;;1838858;78;20348;-80
2021/07/23 11:01:30;;;;;;;;;;;27.00;99.90;;;;;;1855136;75;20176;-79
2021/07/23 11:04:01;;;;;;;;;;;27.00;99.90;;;;;;1853689;76;20667;-79
2021/07/23 11:06:34;;;;;;;;;;;26.90;99.90;;;;;;1884377;75;20249;-79
2021/07/23 11:09:08;;;;;;;;;;;27.00;99.90;;;;;;1936813;72;20180;-79
2021/07/23 11:11:36;;;;;;;;;;;26.90;99.90;;;;;;1919734;72;20175;-79
2021/07/23 11:14:07;;;;;;;;;;;26.90;99.90;;;;;;1944653;72;20140;-80
2021/07/23 11:16:37;;;;;;;;;;;26.80;99.90;;;;;;1897871;74;20185;-80
2021/07/23 11:19:06;;;;;;;;;;;26.80;99.90;;;;;;1935750;72;20477;-81
2021/07/23 11:21:37;;;;;;;;;;;26.80;99.90;;;;;;1929935;72;20189;-80
2021/07/23 11:24:08;;;;;;;;;;;26.80;99.90;;;;;;1926323;73;20176;-78
2021/07/23 11:26:37;;;;;;;;;;;26.80;99.90;;;;;;1893486;74;20240;-79
2021/07/23 11:29:07;;;;;;;;;;;26.70;99.90;;;;;;1886847;74;20205;-79
2021/07/23 11:31:40;;;;;;;;;;;26.70;99.90;;;;;;1882721;74;20510;-78
2021/07/23 11:34:11;;;;;;;;;;;26.70;99.90;;;;;;1867750;76;20478;-78
2021/07/23 11:36:40;;;;;;;;;;;26.60;99.90;;;;;;1876134;75;20213;-90
2021/07/23 11:39:25;;;;;;;;;;;;;;;;;;;;;
2021/07/23 11:44:46;;;;;;;;;;;26.50;99.90;;;;;;1776645;79;20442;-91
2021/07/23 11:47:16;;;;;;;;;;;26.50;99.90;;;;;;1780310;79;20237;-91
2021/07/23 11:53:03;;;;;;;;;;;;;;;;;;;;;
2021/07/23 11:58:43;;;;;;;;;;;26.30;99.90;;;;;;1764095;76;20174;-90
2021/07/23 12:01:34;;;;;;;;;;;26.30;99.90;;;;;;1846539;75;20273;-90
2021/07/23 12:04:14;;;;;;;;;;;26.30;99.90;;;;;;1867033;76;20199;-90
2021/07/23 12:06:45;;;;;;;;;;;26.30;99.90;;;;;;1837679;77;20277;-90
2021/07/23 12:09:17;;;;;;;;;;;26.30;99.90;;;;;;1804224;78;20194;-91
2021/07/23 12:11:49;;;;;;;;;;;26.30;99.90;;;;;;1838485;76;20183;-91
2021/07/23 12:14:19;;;;;;;;;;;26.30;99.90;;;;;;1825157;77;20231;-90
2021/07/23 12:16:53;;;;;;;;;;;26.30;99.90;;;;;;1826447;78;20269;-90
2021/07/23 12:22:32;;;;;;;;;;;26.20;99.90;;;;;;1772400;79;20258;-91
2021/07/23 12:25:07;;;;;;;;;;;26.10;99.90;;;;;;1780495;79;20218;-90
2021/07/23 12:27:39;;;;;;;;;;;26.10;99.90;;;;;;1744669;82;20179;-90
2021/07/23 12:30:11;;;;;;;;;;;26.10;99.90;;;;;;1754404;82;20247;-91
2021/07/23 12:32:54;;;;;;;;;;;26.10;99.90;;;;;;1753381;82;20233;-90
2021/07/23 12:35:25;;;;;;;;;;;26.10;99.90;;;;;;1761577;79;20188;-90
2021/07/23 12:37:57;;;;;;;;;;;26.10;99.90;;;;;;1819208;78;20453;-91
2021/07/23 12:43:45;;;;;;;;;;;26.10;99.90;;;;;;1806286;77;20259;-91
2021/07/23 12:46:37;;;;;;;;;;;26.10;99.90;;;;;;1806182;78;20229;-90
2021/07/23 12:49:10;;;;;;;;;;;26.00;99.90;;;;;;1794899;77;20157;-89
2021/07/23 12:51:44;;;;;;;;;;;26.00;99.90;;;;;;1799009;78;20219;-89
2021/07/23 12:54:15;;;;;;;;;;;26.00;99.90;;;;;;1773381;79;20287;-90
2021/07/23 12:56:44;;;;;;;;;;;26.10;99.90;;;;;;1819172;78;20319;-90
2021/07/23 12:59:17;;;;;;;;;;;26.00;99.90;;;;;;1833352;76;20124;-90
2021/07/23 13:01:48;;;;;;;;;;;26.00;99.90;;;;;;1930904;73;20237;-90
2021/07/23 13:07:26;;;;;;;;;;;26.10;99.90;;;;;;1933279;73;20186;-90
2021/07/23 13:09:55;;;;;;;;;;;26.10;99.90;;;;;;1929928;73;20471;-90
2021/07/23 13:12:25;;;;;;;;;;;26.10;99.90;;;;;;1942872;73;20221;-91
2021/07/23 13:14:58;;;;;;;;;;;26.10;99.90;;;;;;1949152;73;20179;-90
2021/07/23 13:17:34;;;;;;;;;;;26.00;99.90;;;;;;1898250;75;20393;-90
2021/07/23 13:20:07;;;;;;;;;;;26.10;99.90;;;;;;1927110;73;20452;-91
2021/07/23 13:22:37;;;;;;;;;;;26.10;99.90;;;;;;1939778;73;20190;-90
2021/07/23 13:25:08;;;;;;;;;;;26.00;99.90;;;;;;1934530;73;20266;-89
2021/07/23 13:27:42;;;;;;;;;;;26.00;99.90;;;;;;1937912;73;20205;-90
2021/07/23 13:30:12;;;;;;;;;;;26.00;99.90;;;;;;1936129;73;20198;-89
2021/07/23 13:32:46;;;;;;;;;;;26.00;99.90;;;;;;1928109;73;20271;-90
2021/07/23 13:35:18;;;;;;;;;;;25.90;99.90;;;;;;1930203;73;20165;-89
2021/07/23 13:37:52;;;;;;;;;;;25.90;99.90;;;;;;1934870;73;20181;-89
2021/07/23 13:40:25;;;;;;;;;;;25.90;99.90;;;;;;1929871;73;20294;-90
2021/07/23 13:42:56;;;;;;;;;;;25.90;99.90;;;;;;1932875;73;20183;-90
2021/07/23 13:45:26;;;;;;;;;;;25.90;99.90;;;;;;1930210;73;20244;-90
2021/07/23 13:47:55;;;;;;;;;;;25.90;99.90;;;;;;1930960;73;20168;-90
2021/07/23 13:50:30;;;;;;;;;;;25.90;99.90;;;;;;1928619;73;20140;-90
2021/07/23 13:52:56;;;;;;;;;;;25.90;99.90;;;;;;1926816;73;20193;-91
2021/07/23 13:55:27;;;;;;;;;;;25.90;99.90;;;;;;1925950;73;20359;-90
2021/07/23 13:58:07;;;;;;;;;;;25.90;99.90;;;;;;1927259;73;20252;-90
2021/07/23 14:00:46;;;;;;;;;;;25.90;99.90;;;;;;1924239;73;20163;-89
2021/07/23 14:03:19;;;;;;;;;;;25.90;99.90;;;;;;1857133;76;20238;-90
2021/07/23 14:06:06;;;;;;;;;;;25.90;99.90;;;;;;1840245;76;20173;-89
2021/07/23 14:08:58;;;;;;;;;;;25.90;99.90;;;;;;1828795;77;20249;-88
2021/07/23 14:11:24;;;;;;;;;;;25.90;99.90;;;;;;1865926;75;20206;-90
2021/07/23 14:13:59;;;;;;;;;;;25.90;99.90;;;;;;1877613;76;20162;-89
2021/07/23 14:16:30;;;;;;;;;;;25.90;99.90;;;;;;1843877;76;20182;-90
2021/07/23 14:19:00;;;;;;;;;;;25.90;99.90;;;;;;1865528;76;20179;-90
2021/07/23 14:21:32;;;;;;;;;;;25.90;99.90;;;;;;1875696;76;20161;-90
2021/07/23 14:24:03;;;;;;;;;;;25.90;99.90;;;;;;1851734;77;20285;-89
2021/07/23 14:26:33;;;;;;;;;;;25.90;99.90;;;;;;1851799;77;20176;-89
2021/07/23 14:29:04;;;;;;;;;;;25.90;99.90;;;;;;1858794;76;20160;-90
2021/07/23 14:31:34;;;;;;;;;;;25.90;99.90;;;;;;1874331;76;20130;-89
2021/07/23 14:34:04;;;;;;;;;;;25.90;99.90;;;;;;1855798;76;20228;-90
2021/07/23 14:36:45;;;;;;;;;;;25.90;99.90;;;;;;1856059;76;20175;-90
2021/07/23 14:39:13;;;;;;;;;;;25.90;99.90;;;;;;1865892;76;20431;-89
2021/07/23 14:41:42;;;;;;;;;;;25.80;99.90;;;;;;1878854;76;20204;-90
2021/07/23 14:44:12;;;;;;;;;;;25.80;99.90;;;;;;1879494;76;20206;-91
2021/07/23 14:46:45;;;;;;;;;;;25.80;99.90;;;;;;1853647;77;20175;-89
2021/07/23 14:49:32;;;;;;;;;;;25.80;99.90;;;;;;1879282;74;20189;-90
2021/07/23 14:51:58;;;;;;;;;;;25.80;99.90;;;;;;1877755;76;20262;-91
2021/07/23 14:54:27;;;;;;;;;;;25.80;99.90;;;;;;1867014;76;20263;-91
2021/07/23 14:56:57;;;;;;;;;;;25.80;99.90;;;;;;1845304;76;20214;-90
2021/07/23 14:59:31;;;;;;;;;;;25.80;99.90;;;;;;1842059;77;20452;-89
2021/07/23 15:01:59;;;;;;;;;;;25.80;99.90;;;;;;1842718;77;20211;-89
2021/07/23 15:04:30;;;;;;;;;;;25.80;99.90;;;;;;1857468;76;20196;-89
2021/07/23 15:07:01;;;;;;;;;;;25.80;99.90;;;;;;1849048;77;20291;-89